This is the latest recevied weather packets stored in our database for station/object OZ1IEP-5. If no packets are shown the sender has not sent any weather packets the latest 1 day(s).
| Time | Temp. | Humidity | Pressure | Rain* | Wind** | Luminosity | Snow |
|---|---|---|---|---|---|---|---|
| 1778096406 | 7.78° C | 72% | 1010.9 hPa | 0 mm | - | 0 W/m² | - |
| 1778094017 | 8.89° C | 66% | 1010.7 hPa | 0 mm | - | 0 W/m² | - |
| 1778092806 | 10° C | 63% | 1010.4 hPa | 0 mm | - | 16 W/m² | - |
| 1778092208 | 10° C | 61% | 1010.3 hPa | 0 mm | - | 23 W/m² | - |
| 1778089206 | 11.11° C | 54% | 1009.9 hPa | 0 mm | - | 120 W/m² | - |
| 1778088608 | 11.67° C | 53% | 1009.8 hPa | 0 mm | - | 58 W/m² | - |
| 1778088007 | 11.67° C | 53% | 1009.8 hPa | 0 mm | - | 81 W/m² | - |
| 1778085606 | 11.67° C | 51% | 1009.7 hPa | 0 mm | - | 116 W/m² | - |
| 1778083208 | 11.67° C | 51% | 1009.4 hPa | 0 mm | - | 51 W/m² | - |
| 1778082006 | 11.67° C | 52% | 1009.4 hPa | 0 mm | - | 40 W/m² | - |
| 1778081408 | 11.67° C | 51% | 1009.4 hPa | 0 mm | - | 46 W/m² | - |
| 1778080806 | 12.22° C | 54% | 1009.4 hPa | 0 mm | - | 30 W/m² | - |
| 1778076606 | 13.33° C | 62% | 1009 hPa | 0 mm | - | 132 W/m² | - |
| 1778073006 | 12.78° C | 61% | 1008.8 hPa | 0 mm | - | 237 W/m² | - |
| 1778071206 | 12.78° C | 59% | 1008.7 hPa | 0 mm | - | 111 W/m² | - |
| 1778070006 | 14.44° C | 58% | 1008.4 hPa | 0 mm | - | 534 W/m² | - |
| 1778068808 | 14.44° C | 57% | 1008.5 hPa | 0 mm | - | 761 W/m² | - |
| 1778068206 | 13.89° C | 55% | 1008.6 hPa | 0 mm | - | 773 W/m² | - |
| 1778067008 | 13.89° C | 56% | 1008.7 hPa | 0 mm | - | 798 W/m² | - |
| 1778066406 | 13.33° C | 56% | 1008.8 hPa | 0 mm | - | 763 W/m² | - |
| 1778061006 | 12.78° C | 47% | 1008.8 hPa | 0 mm | - | 547 W/m² | - |
| 1778060406 | 12.78° C | 48% | 1008.8 hPa | 0 mm | - | 570 W/m² | - |
| 1778059206 | 12.22° C | 50% | 1008.8 hPa | 0 mm | - | 564 W/m² | - |
| 1778058007 | 12.22° C | 49% | 1008.8 hPa | 0 mm | - | 367 W/m² | - |
| 1778057406 | 12.22° C | 50% | 1008.8 hPa | 0 mm | - | 487 W/m² | - |
* Rain latest hour (hover to see other rain measurements)
** Current wind speed in m/s (hover to see current wind gust speed)